createdAt,value
2017-12-03T00:01:01.934Z,0.80
2017-12-03T00:03:29.389Z,0.80
2017-12-03T00:05:56.856Z,0.70
2017-12-03T00:08:24.345Z,0.70
2017-12-03T00:10:51.801Z,0.70
2017-12-03T00:13:19.249Z,0.70
2017-12-03T00:15:46.704Z,0.70
2017-12-03T00:18:14.156Z,0.70
2017-12-03T00:20:42.085Z,0.70
2017-12-03T00:23:10.457Z,0.70
2017-12-03T00:25:37.909Z,0.70
2017-12-03T00:28:05.378Z,0.70
2017-12-03T00:30:32.817Z,0.70
2017-12-03T00:33:00.284Z,0.70
2017-12-03T00:35:27.763Z,0.80
2017-12-03T00:37:55.209Z,0.70
2017-12-03T00:40:22.665Z,0.70
2017-12-03T00:42:50.114Z,0.80
2017-12-03T00:45:17.587Z,0.80
2017-12-03T00:47:45.037Z,0.80
2017-12-03T00:50:12.489Z,0.80
2017-12-03T00:52:40.075Z,0.80
2017-12-03T00:55:07.520Z,0.80
2017-12-03T00:57:34.994Z,0.80
2017-12-03T01:00:02.457Z,0.80
2017-12-03T01:02:29.940Z,0.80
2017-12-03T01:04:57.395Z,0.80
2017-12-03T01:07:24.904Z,0.80
2017-12-03T01:09:52.318Z,0.80
2017-12-03T01:12:19.778Z,0.80
2017-12-03T01:14:47.247Z,0.80
2017-12-03T01:17:14.699Z,0.80
2017-12-03T01:19:42.180Z,0.80
2017-12-03T01:22:09.623Z,0.80
2017-12-03T01:24:37.073Z,0.80
2017-12-03T01:27:04.533Z,0.80
2017-12-03T01:29:31.997Z,0.80
2017-12-03T01:31:59.454Z,0.80
2017-12-03T01:34:27.676Z,0.80
2017-12-03T01:36:55.162Z,0.70
2017-12-03T01:39:22.615Z,0.80
2017-12-03T01:41:50.071Z,0.70
2017-12-03T01:44:17.535Z,0.70
2017-12-03T01:46:44.991Z,0.70
2017-12-03T01:49:12.455Z,0.70
2017-12-03T01:51:39.904Z,0.70
2017-12-03T01:54:07.386Z,0.70
2017-12-03T01:56:34.833Z,0.80
2017-12-03T01:59:02.297Z,0.70
2017-12-03T02:01:29.761Z,0.80
2017-12-03T02:03:57.219Z,0.80
2017-12-03T02:06:24.700Z,0.70
2017-12-03T02:08:52.156Z,0.70
2017-12-03T02:11:19.622Z,0.70
2017-12-03T02:13:47.088Z,0.70
2017-12-03T02:16:14.561Z,0.70
2017-12-03T02:18:42.011Z,0.70
2017-12-03T02:21:09.475Z,0.70
2017-12-03T02:23:36.957Z,0.80
2017-12-03T02:26:04.416Z,0.80
2017-12-03T02:28:31.864Z,0.80
2017-12-03T02:30:59.327Z,0.80
2017-12-03T02:33:26.783Z,0.80
2017-12-03T02:35:54.263Z,0.80
2017-12-03T02:38:21.719Z,0.80
2017-12-03T02:40:49.187Z,0.80
2017-12-03T02:43:16.645Z,0.80
2017-12-03T02:45:44.105Z,0.80
2017-12-03T02:48:11.582Z,0.90
2017-12-03T02:50:39.043Z,0.90
2017-12-03T02:53:06.507Z,0.90
2017-12-03T02:55:34.731Z,0.90
2017-12-03T02:58:02.245Z,0.90
2017-12-03T03:00:29.694Z,0.90
2017-12-03T03:02:57.151Z,0.90
2017-12-03T03:05:24.606Z,0.90
2017-12-03T03:07:52.048Z,0.90
2017-12-03T03:10:20.266Z,0.90
2017-12-03T03:12:47.710Z,0.90
2017-12-03T03:15:15.149Z,0.90
2017-12-03T03:17:42.613Z,0.90
2017-12-03T03:20:10.056Z,0.90
2017-12-03T03:22:37.528Z,0.90
2017-12-03T03:25:04.981Z,0.90
2017-12-03T03:27:32.426Z,0.90
2017-12-03T03:30:00.642Z,0.90
2017-12-03T03:32:28.091Z,0.90
2017-12-03T03:34:55.664Z,0.90
2017-12-03T03:37:23.097Z,0.90
2017-12-03T03:39:51.305Z,0.90
2017-12-03T03:42:18.779Z,0.90
2017-12-03T03:44:46.244Z,0.90
2017-12-03T03:47:13.697Z,0.90
2017-12-03T03:49:41.156Z,0.90
2017-12-03T03:52:08.626Z,0.90
2017-12-03T03:54:36.061Z,0.90
2017-12-03T03:57:03.504Z,0.90
2017-12-03T03:59:31.746Z,0.90
2017-12-03T04:01:59.207Z,0.90
2017-12-03T04:04:26.681Z,0.90
2017-12-03T04:06:54.134Z,0.90
2017-12-03T04:09:21.577Z,0.90
2017-12-03T04:11:49.035Z,0.90
2017-12-03T04:14:16.498Z,0.90
2017-12-03T04:16:43.967Z,0.90
2017-12-03T04:19:11.420Z,0.90
2017-12-03T04:21:38.866Z,0.90
2017-12-03T04:24:06.357Z,0.90
2017-12-03T04:26:33.799Z,1.00
2017-12-03T04:29:01.296Z,1.00
2017-12-03T04:31:28.751Z,1.00
2017-12-03T04:33:56.207Z,1.00
2017-12-03T04:36:23.680Z,1.00
2017-12-03T04:38:51.123Z,1.00
2017-12-03T04:41:18.597Z,1.00
2017-12-03T04:43:46.056Z,1.00
2017-12-03T04:46:13.501Z,1.00
2017-12-03T04:48:40.949Z,1.00
2017-12-03T04:51:08.391Z,1.00
2017-12-03T04:53:36.634Z,1.00
2017-12-03T04:56:04.092Z,1.00
2017-12-03T04:58:31.525Z,1.00
2017-12-03T05:00:58.973Z,1.00
2017-12-03T05:03:26.412Z,1.00
2017-12-03T05:05:54.640Z,1.00
2017-12-03T05:08:22.099Z,1.00
2017-12-03T05:10:49.571Z,1.00
2017-12-03T05:13:17.024Z,1.00
2017-12-03T05:15:44.471Z,1.00
2017-12-03T05:18:11.949Z,1.00
2017-12-03T05:20:39.411Z,1.00
2017-12-03T05:23:06.867Z,1.00
2017-12-03T05:25:34.337Z,1.00
2017-12-03T05:28:01.792Z,1.10
2017-12-03T05:30:29.275Z,1.00
2017-12-03T05:32:56.727Z,1.10
2017-12-03T05:35:24.187Z,1.10
2017-12-03T05:37:51.657Z,1.10
2017-12-03T05:40:19.120Z,1.10
2017-12-03T05:42:46.593Z,1.10
2017-12-03T05:45:14.037Z,1.10
2017-12-03T05:47:41.491Z,1.10
2017-12-03T05:50:08.963Z,1.10
2017-12-03T05:52:36.401Z,1.10
2017-12-03T05:55:03.873Z,1.10
2017-12-03T05:57:31.337Z,1.10
2017-12-03T05:59:58.813Z,1.10
2017-12-03T06:02:26.291Z,1.10
2017-12-03T06:04:53.769Z,1.10
2017-12-03T06:07:21.249Z,1.10
2017-12-03T06:09:48.716Z,1.10
2017-12-03T06:12:16.175Z,1.10
2017-12-03T06:14:43.651Z,1.10
2017-12-03T06:17:11.883Z,1.10
2017-12-03T06:19:39.354Z,1.10
2017-12-03T06:22:06.818Z,1.10
2017-12-03T06:24:35.072Z,1.10
2017-12-03T06:27:02.535Z,1.10
2017-12-03T06:29:29.983Z,1.10
2017-12-03T06:31:57.466Z,1.10
2017-12-03T06:34:24.914Z,1.00
2017-12-03T06:36:52.365Z,1.00
2017-12-03T06:39:19.817Z,1.00
2017-12-03T06:41:48.050Z,1.00
2017-12-03T06:44:15.563Z,1.00
2017-12-03T06:46:43.787Z,1.00
2017-12-03T06:49:11.251Z,1.00
2017-12-03T06:51:38.695Z,1.00
2017-12-03T06:54:06.164Z,0.90
2017-12-03T06:56:33.615Z,0.90
2017-12-03T06:59:01.087Z,0.90
2017-12-03T07:01:28.551Z,0.90
2017-12-03T07:03:56.022Z,0.90
2017-12-03T07:06:23.468Z,0.80
2017-12-03T07:08:50.932Z,0.80
2017-12-03T07:11:18.393Z,0.80
2017-12-03T07:13:45.895Z,0.80
2017-12-03T07:16:13.356Z,0.80
2017-12-03T07:18:40.826Z,0.80
2017-12-03T07:21:08.312Z,0.70
2017-12-03T07:23:36.567Z,0.70
2017-12-03T07:26:04.090Z,0.70
2017-12-03T07:28:31.552Z,0.70
2017-12-03T07:30:59.014Z,0.70
2017-12-03T07:33:26.580Z,0.70
2017-12-03T07:35:54.052Z,0.70
2017-12-03T07:38:21.512Z,0.70
2017-12-03T07:40:49.055Z,0.70
2017-12-03T07:43:17.315Z,0.70
2017-12-03T07:45:45.560Z,0.70
2017-12-03T07:48:13.098Z,0.70
2017-12-03T07:50:40.568Z,0.70
2017-12-03T07:53:08.020Z,0.70
2017-12-03T07:55:35.495Z,0.70
2017-12-03T07:58:02.988Z,0.70
2017-12-03T08:00:30.462Z,0.70
2017-12-03T08:02:58.713Z,0.80
2017-12-03T08:05:26.935Z,0.80
2017-12-03T08:07:55.163Z,0.80
2017-12-03T08:10:22.621Z,0.80
2017-12-03T08:12:50.075Z,0.80
2017-12-03T08:15:17.546Z,0.80
2017-12-03T08:17:44.999Z,0.80
2017-12-03T08:20:12.488Z,0.80
2017-12-03T08:22:39.969Z,0.80
2017-12-03T08:25:11.700Z,0.90
2017-12-03T08:27:45.133Z,0.90
2017-12-03T08:30:12.614Z,0.90
2017-12-03T08:32:40.862Z,0.80
2017-12-03T08:35:08.331Z,0.80
2017-12-03T08:37:35.783Z,0.80
2017-12-03T08:40:03.271Z,0.80
2017-12-03T08:42:33.914Z,0.80
2017-12-03T08:48:23.778Z,0.80
2017-12-03T08:56:55.284Z,0.80
2017-12-03T08:59:34.092Z,0.80
2017-12-03T09:05:07.387Z,0.80
2017-12-03T09:07:37.166Z,0.80
2017-12-03T09:10:06.294Z,0.80
2017-12-03T09:12:39.334Z,0.80
2017-12-03T09:15:14.684Z,0.80
2017-12-03T09:20:19.713Z,0.80
2017-12-03T09:22:47.797Z,0.80
2017-12-03T09:25:22.179Z,0.90
2017-12-03T09:27:51.859Z,0.90
2017-12-03T09:30:21.860Z,0.90
2017-12-03T09:32:55.572Z,0.90
2017-12-03T09:35:33.416Z,0.90
2017-12-03T09:38:08.311Z,0.90
2017-12-03T09:40:39.512Z,0.90
2017-12-03T09:43:10.395Z,0.90
2017-12-03T09:45:45.215Z,0.90
2017-12-03T09:54:06.679Z,0.90
2017-12-03T09:56:37.677Z,0.90
2017-12-03T09:59:16.769Z,1.00
2017-12-03T10:01:46.708Z,1.00
2017-12-03T10:04:22.378Z,1.00
2017-12-03T10:06:50.172Z,1.00
2017-12-03T10:09:40.746Z,1.00
2017-12-03T10:12:24.305Z,1.00
2017-12-03T10:14:57.031Z,1.00
2017-12-03T10:17:44.084Z,1.00
2017-12-03T10:20:13.573Z,1.10
2017-12-03T10:22:50.784Z,1.10
2017-12-03T10:31:12.662Z,1.20
2017-12-03T10:33:47.460Z,1.20
2017-12-03T10:36:15.063Z,1.10
2017-12-03T10:48:04.085Z,1.20
2017-12-03T10:50:31.536Z,1.20
2017-12-03T10:52:59.016Z,1.20
2017-12-03T10:55:26.478Z,1.20
2017-12-03T10:57:55.227Z,1.20
2017-12-03T11:00:36.832Z,1.30
2017-12-03T11:03:04.286Z,1.20
2017-12-03T11:08:34.815Z,1.30
2017-12-03T11:11:02.288Z,1.30
2017-12-03T11:13:39.894Z,1.30
2017-12-03T11:16:07.329Z,1.30
2017-12-03T11:18:34.779Z,1.30
2017-12-03T11:21:02.222Z,1.30
2017-12-03T11:23:30.432Z,1.30
2017-12-03T11:25:57.898Z,1.30
2017-12-03T11:28:25.352Z,1.30
2017-12-03T11:30:52.777Z,1.30
2017-12-03T11:33:20.265Z,1.30
2017-12-03T11:35:47.699Z,1.30
2017-12-03T11:38:15.145Z,1.40
2017-12-03T11:40:42.585Z,1.40
2017-12-03T11:43:10.806Z,1.40
2017-12-03T11:45:38.267Z,1.40
2017-12-03T11:48:05.710Z,1.40
2017-12-03T11:50:33.170Z,1.40
2017-12-03T11:53:00.615Z,1.40
2017-12-03T11:55:28.087Z,1.40
2017-12-03T11:57:55.517Z,1.40
2017-12-03T12:00:23.035Z,1.40
2017-12-03T12:02:50.482Z,1.40
2017-12-03T12:05:17.932Z,1.40
2017-12-03T12:07:45.387Z,1.40
2017-12-03T12:10:12.858Z,1.40
2017-12-03T12:12:40.335Z,1.40
2017-12-03T12:15:07.774Z,1.40
2017-12-03T12:17:36.042Z,1.40
2017-12-03T12:20:03.481Z,1.40
2017-12-03T12:22:30.933Z,1.40
2017-12-03T12:24:58.394Z,1.50
2017-12-03T12:27:25.838Z,1.50
2017-12-03T12:29:53.303Z,1.50
2017-12-03T12:32:20.734Z,1.50
2017-12-03T12:34:48.165Z,1.40
2017-12-03T12:37:15.644Z,1.40
2017-12-03T12:39:43.061Z,1.50
2017-12-03T12:42:11.260Z,1.40
2017-12-03T12:44:38.695Z,1.40
2017-12-03T12:47:06.910Z,1.50
2017-12-03T12:49:34.340Z,1.50
2017-12-03T12:52:01.791Z,1.50
2017-12-03T12:54:29.237Z,1.50
2017-12-03T12:56:57.452Z,1.50
2017-12-03T12:59:25.016Z,1.40
2017-12-03T13:01:52.432Z,1.50
2017-12-03T13:04:20.662Z,1.40
2017-12-03T13:06:48.118Z,1.40
2017-12-03T13:09:15.566Z,1.40
2017-12-03T13:11:43.026Z,1.40
2017-12-03T13:14:10.482Z,1.40
2017-12-03T13:16:37.936Z,1.40
2017-12-03T13:19:05.388Z,1.40
2017-12-03T13:21:32.850Z,1.50
2017-12-03T13:24:00.295Z,1.50
2017-12-03T13:26:27.763Z,1.50
2017-12-03T13:28:55.232Z,1.50
2017-12-03T13:31:22.683Z,1.50
2017-12-03T13:33:50.141Z,1.50
2017-12-03T13:36:17.607Z,1.50
2017-12-03T13:38:45.065Z,1.50
2017-12-03T13:41:12.515Z,1.60
2017-12-03T13:43:39.979Z,1.60
2017-12-03T13:46:07.428Z,1.60
2017-12-03T13:48:34.877Z,1.60
2017-12-03T13:51:02.339Z,1.60
2017-12-03T13:53:29.782Z,1.60
2017-12-03T13:55:57.278Z,1.60
2017-12-03T13:58:24.708Z,1.60
2017-12-03T14:00:52.150Z,1.60
2017-12-03T14:03:19.616Z,1.60
2017-12-03T14:05:47.053Z,1.60
2017-12-03T14:08:14.497Z,1.60
2017-12-03T14:10:41.926Z,1.70
2017-12-03T14:13:09.382Z,1.60
2017-12-03T14:15:36.832Z,1.70
2017-12-03T14:18:04.282Z,1.60
2017-12-03T14:20:31.729Z,1.60
2017-12-03T14:22:59.181Z,1.70
2017-12-03T14:25:26.647Z,1.70
2017-12-03T14:27:54.098Z,1.70
2017-12-03T14:30:21.629Z,1.70
2017-12-03T14:32:49.074Z,1.70
2017-12-03T14:35:16.512Z,1.70
2017-12-03T14:37:43.972Z,1.70
2017-12-03T14:40:11.416Z,1.70
2017-12-03T14:42:38.869Z,1.70
2017-12-03T14:45:06.318Z,1.70
2017-12-03T14:47:33.788Z,1.70
2017-12-03T14:50:01.229Z,1.70
2017-12-03T14:52:28.687Z,1.70
2017-12-03T14:54:56.142Z,1.70
2017-12-03T14:57:23.602Z,1.70
2017-12-03T14:59:51.054Z,1.70
2017-12-03T15:02:18.516Z,1.70
2017-12-03T15:04:46.754Z,1.70
2017-12-03T15:07:14.210Z,1.70
2017-12-03T15:09:41.645Z,1.70
2017-12-03T15:12:09.875Z,1.70
2017-12-03T15:14:37.317Z,1.70
2017-12-03T15:17:04.772Z,1.70
2017-12-03T15:19:32.223Z,1.70
2017-12-03T15:21:59.666Z,1.80
2017-12-03T15:24:27.127Z,1.70
2017-12-03T15:26:54.571Z,1.80
2017-12-03T15:29:22.023Z,1.70
2017-12-03T15:31:50.235Z,1.80
2017-12-03T15:34:17.727Z,1.70
2017-12-03T15:36:45.140Z,1.80
2017-12-03T15:39:12.586Z,1.70
2017-12-03T15:41:40.385Z,1.80
2017-12-03T15:44:07.830Z,1.80
2017-12-03T15:46:35.282Z,1.70
2017-12-03T15:49:02.740Z,1.80
2017-12-03T15:51:30.202Z,1.80
2017-12-03T15:53:57.657Z,1.70
2017-12-03T15:56:25.107Z,1.70
2017-12-03T15:58:52.557Z,1.70
2017-12-03T16:01:19.997Z,1.70
2017-12-03T16:03:47.437Z,1.70
2017-12-03T16:06:15.671Z,1.70
2017-12-03T16:08:43.118Z,1.70
2017-12-03T16:11:10.577Z,1.80
2017-12-03T16:13:38.024Z,1.70
2017-12-03T16:16:05.467Z,1.80
2017-12-03T16:18:32.903Z,1.80
2017-12-03T16:21:01.119Z,1.70
2017-12-03T16:23:28.587Z,1.70
2017-12-03T16:25:56.033Z,1.80
2017-12-03T16:28:23.592Z,1.80
2017-12-03T16:30:51.024Z,1.80
2017-12-03T16:33:18.465Z,1.70
2017-12-03T16:35:46.681Z,1.80
2017-12-03T16:38:14.180Z,1.80
2017-12-03T16:40:42.334Z,1.80
2017-12-03T16:43:09.791Z,1.80
2017-12-03T16:45:38.005Z,1.80
2017-12-03T16:48:06.223Z,1.80
2017-12-03T16:50:33.668Z,1.80
2017-12-03T16:53:01.136Z,1.80
2017-12-03T16:55:28.579Z,1.80
2017-12-03T16:57:56.027Z,1.80
2017-12-03T17:00:24.234Z,1.80
2017-12-03T17:02:51.672Z,1.80
2017-12-03T17:05:19.133Z,1.80
2017-12-03T17:07:46.556Z,1.80
2017-12-03T17:10:14.779Z,1.80
2017-12-03T17:12:42.222Z,1.80
2017-12-03T17:15:09.670Z,1.80
2017-12-03T17:17:37.134Z,1.80
2017-12-03T17:20:04.592Z,1.80
2017-12-03T17:22:32.030Z,1.80
2017-12-03T17:24:59.473Z,1.80
2017-12-03T17:27:27.709Z,1.90
2017-12-03T17:29:55.165Z,1.80
2017-12-03T17:32:22.602Z,1.90
2017-12-03T17:34:50.160Z,1.90
2017-12-03T17:37:17.616Z,1.90
2017-12-03T17:39:45.796Z,1.90
2017-12-03T17:42:13.250Z,1.90
2017-12-03T17:44:40.719Z,1.90
2017-12-03T17:47:08.163Z,1.90
2017-12-03T17:49:35.618Z,1.90
2017-12-03T17:52:03.085Z,1.90
2017-12-03T17:54:30.516Z,1.90
2017-12-03T17:56:57.958Z,1.90
2017-12-03T17:59:25.414Z,1.90
2017-12-03T18:01:52.848Z,1.90
2017-12-03T18:04:21.083Z,1.90
2017-12-03T18:06:48.521Z,1.90
2017-12-03T18:09:15.971Z,1.90
2017-12-03T18:11:43.421Z,1.90
2017-12-03T18:14:10.871Z,1.90
2017-12-03T18:16:39.089Z,1.90
2017-12-03T18:19:06.643Z,1.90
2017-12-03T18:21:34.101Z,1.90
2017-12-03T18:24:01.549Z,1.90
2017-12-03T18:26:28.990Z,1.90
2017-12-03T18:28:56.476Z,1.90
2017-12-03T18:31:23.916Z,1.90
2017-12-03T18:33:51.384Z,1.90
2017-12-03T18:36:18.830Z,1.90
2017-12-03T18:38:46.350Z,1.90
2017-12-03T18:41:13.757Z,1.90
2017-12-03T18:43:41.255Z,1.90
2017-12-03T18:46:08.706Z,1.90
2017-12-03T18:48:36.146Z,1.90
2017-12-03T18:51:03.610Z,2.00
2017-12-03T18:53:31.063Z,2.00
2017-12-03T18:55:59.269Z,2.00
2017-12-03T18:58:27.538Z,2.00
2017-12-03T19:00:54.976Z,2.00
2017-12-03T19:03:22.434Z,2.00
2017-12-03T19:05:49.887Z,2.00
2017-12-03T19:08:17.346Z,1.90
2017-12-03T19:10:44.795Z,1.90
2017-12-03T19:13:12.269Z,2.00
2017-12-03T19:15:39.718Z,1.90
2017-12-03T19:18:07.171Z,2.00
2017-12-03T19:20:34.631Z,2.00
2017-12-03T19:23:02.099Z,2.00
2017-12-03T19:25:29.558Z,2.00
2017-12-03T19:27:57.003Z,2.00
2017-12-03T19:30:24.458Z,2.00
2017-12-03T19:32:51.894Z,2.00
2017-12-03T19:35:19.347Z,2.00
2017-12-03T19:37:46.804Z,2.00
2017-12-03T19:40:14.228Z,2.00
2017-12-03T19:42:42.477Z,2.00
2017-12-03T19:45:09.927Z,2.00
2017-12-03T19:47:37.406Z,2.00
2017-12-03T19:50:05.636Z,2.00
2017-12-03T19:52:33.084Z,2.00
2017-12-03T19:55:00.542Z,2.00
2017-12-03T19:57:27.983Z,2.10
2017-12-03T19:59:55.434Z,2.10
2017-12-03T20:02:22.877Z,2.10
2017-12-03T20:04:51.103Z,2.10
2017-12-03T20:07:18.562Z,2.00
2017-12-03T20:09:46.762Z,2.10
2017-12-03T20:12:14.217Z,2.10
2017-12-03T20:14:41.659Z,2.10
2017-12-03T20:17:09.100Z,2.10
2017-12-03T20:19:36.554Z,2.10
2017-12-03T20:22:04.014Z,2.10
2017-12-03T20:24:31.444Z,2.10
2017-12-03T20:26:58.891Z,2.10
2017-12-03T20:29:27.098Z,2.10
2017-12-03T20:31:54.554Z,2.10
2017-12-03T20:34:22.012Z,2.10
2017-12-03T20:36:49.469Z,2.10
2017-12-03T20:39:16.926Z,2.10
2017-12-03T20:41:44.379Z,2.10
2017-12-03T20:44:11.864Z,2.10
2017-12-03T20:46:39.306Z,2.10
2017-12-03T20:49:06.759Z,2.10
2017-12-03T20:51:34.192Z,2.10
2017-12-03T20:54:01.638Z,2.10
2017-12-03T20:56:29.852Z,2.10
2017-12-03T20:58:57.302Z,2.10
2017-12-03T21:01:24.746Z,2.20
2017-12-03T21:03:52.216Z,2.20
2017-12-03T21:06:19.675Z,2.20
2017-12-03T21:08:47.112Z,2.20
2017-12-03T21:11:14.551Z,2.20
2017-12-03T21:13:42.783Z,2.20
2017-12-03T21:16:10.220Z,2.20
2017-12-03T21:18:37.647Z,2.30
2017-12-03T21:21:05.102Z,2.20
2017-12-03T21:23:32.545Z,2.30
2017-12-03T21:26:00.760Z,2.30
2017-12-03T21:28:28.247Z,2.30
2017-12-03T21:30:55.722Z,2.30
2017-12-03T21:33:23.159Z,2.30
2017-12-03T21:35:58.170Z,2.30
2017-12-03T21:38:31.213Z,2.30
2017-12-03T21:40:59.384Z,2.30
2017-12-03T21:43:32.344Z,2.30
2017-12-03T21:46:00.216Z,2.30
2017-12-03T21:48:28.175Z,2.30
2017-12-03T21:50:55.914Z,2.30
2017-12-03T21:53:24.635Z,2.30
2017-12-03T21:55:52.098Z,2.30
2017-12-03T21:58:19.541Z,2.30
2017-12-03T22:00:46.999Z,2.30
2017-12-03T22:03:14.434Z,2.30
2017-12-03T22:05:41.871Z,2.30
2017-12-03T22:08:09.505Z,2.30
2017-12-03T22:10:37.109Z,2.30
2017-12-03T22:13:04.769Z,2.30
2017-12-03T22:15:33.092Z,2.30
2017-12-03T22:18:00.598Z,2.30
2017-12-03T22:20:28.188Z,2.30
2017-12-03T22:22:55.679Z,2.40
2017-12-03T22:25:23.262Z,2.40
2017-12-03T22:27:51.495Z,2.40
2017-12-03T22:30:19.134Z,2.40
2017-12-03T22:35:20.845Z,2.40
2017-12-03T22:37:49.469Z,2.40
2017-12-03T22:40:17.983Z,2.40
2017-12-03T22:42:45.550Z,2.40
2017-12-03T22:48:04.066Z,2.40
2017-12-03T22:50:36.568Z,2.40
2017-12-03T22:53:05.785Z,2.40
2017-12-03T22:55:35.104Z,2.40
2017-12-03T22:58:11.066Z,2.40
2017-12-03T23:00:39.214Z,2.50
2017-12-03T23:08:58.067Z,2.50
2017-12-03T23:11:29.273Z,2.50
2017-12-03T23:14:02.655Z,2.50
2017-12-03T23:16:34.437Z,2.50
2017-12-03T23:19:03.726Z,2.60
2017-12-03T23:21:38.735Z,2.50
2017-12-03T23:24:06.302Z,2.50
2017-12-03T23:26:39.528Z,2.60
2017-12-03T23:29:08.391Z,2.60
2017-12-03T23:31:35.904Z,2.60
2017-12-03T23:34:15.716Z,2.60
2017-12-03T23:37:06.541Z,2.60
2017-12-03T23:39:34.982Z,2.60
2017-12-03T23:42:02.562Z,2.70
2017-12-03T23:44:42.930Z,2.60
2017-12-03T23:47:15.071Z,2.70
2017-12-03T23:49:43.479Z,2.60
2017-12-03T23:52:11.914Z,2.70
2017-12-03T23:54:41.116Z,2.70
2017-12-03T23:57:08.819Z,2.70
2017-12-03T23:59:36.412Z,2.70
